Gakona, AK

1:27 AM AKDT on July 29, 2016 (GMT -0800)
Gulkana | | Change Station

Elev 1578 ft 62.16 °N, 145.46 °W | Updated 34 minutes ago

Scattered Clouds
Scattered Clouds
55 °F
Feels Like 55 °F
N
9
Wind Variable Wind from SSE

Today
High -- | Low -- °F
--% Chance of Precip.
Yesterday
High -- | Low -- °F
Precip. -- in
Pressure 30.01 in
Visibility 10.0 miles
Clouds Scattered Clouds 11000 ft
Dew Point 44 °F
Humidity 67%
Rainfall 0.00 in
Snow Depth Not available.
5:00 AM 10:34 PM
Waning Crescent, 23% visible
METAR PAGK 290853Z AUTO 16008KT 10SM SCT110 13/07 A3001 RMK AO2 SLP163 T01280067 402060083 51014 TSNO
Pressure 30.01 in
Visibility 10.0 miles
Clouds Scattered Clouds 11000 ft
Dew Point 44 °F
Humidity 67%
Rainfall 0.00 in
Snow Depth Not available.
5:00 AM 10:34 PM
Waning Crescent, 23% visible
METAR PAGK 290853Z AUTO 16008KT 10SM SCT110 13/07 A3001 RMK AO2 SLP163 T01280067 402060083 51014 TSNO

10-Day Weather Forecast

Almanac

Astronomy

Jul. 29, 2016 Rise Set
Actual Time
Civil Twilight
Nautical Twilight
Astronomical Twilight
Moon
Length of Visible Light
Length of Day
Tomorrow will be .
, % of the Moon is Illuminated

Today's Extremes

State Highs State Lows

Community

WunderPhotos

Upload Photos

1,928,300 photos uploaded!

WunderBlog® & News

Nearby

Air Quality

  Air Quality AQ Index Pollutant
Not available.

Snow Depth

Station Depth Elevation

Earthquake Activity

City Distance Mag. Time & Date
Minimum magnitude displayed is 2.5.

Coastal Water Temperatures

Place Temperature

Stations

Nearby Weather Stations

Station Location Temp. Windchill Dew Point Humidity Wind Precip. Elev Updated Type
                   

Watches & Warnings

There are currently no watches in effect.